Time;durP1;ratioP1;P1;durP2;ratioP2;P2;SDS_P1;SDS_P2;PMS_P1;PMS_P2;Temp;Humidity;BMP_temperature;BMP_pressure;BME280_temperature;BME280_humidity;BME280_pressure;Samples;Min_cycle;Max_cycle;Signal;HPM_P1;HPM_P2
2022/04/15 00:01:11;;;;;;;14.27;7.20;;;10.90;99.90;;;;;;5114244;28;20020;-50
2022/04/15 00:03:36;;;;;;;9.55;6.90;;;10.90;99.90;;;;;;5095990;28;20031;-50
2022/04/15 00:06:09;;;;;;;11.63;6.45;;;10.90;99.90;;;;;;5096010;28;20016;-50
2022/04/15 00:08:35;;;;;;;12.80;7.20;;;10.80;99.90;;;;;;5096612;28;20016;-50
2022/04/15 00:14:36;;;;;;;14.90;7.53;;;10.80;99.90;;;;;;5110419;28;20043;-51
2022/04/15 00:17:03;;;;;;;10.43;6.57;;;10.70;99.90;;;;;;5111656;28;20031;-52
2022/04/15 00:19:29;;;;;;;11.15;7.50;;;10.70;99.90;;;;;;5089572;28;20032;-54
2022/04/15 00:21:55;;;;;;;11.52;6.80;;;10.70;99.90;;;;;;5093155;28;20099;-50
2022/04/15 00:24:20;;;;;;;12.00;7.50;;;10.60;99.90;;;;;;5093416;28;20028;-57
2022/04/15 00:26:46;;;;;;;9.70;6.50;;;10.60;99.90;;;;;;5093361;28;20028;-51
2022/04/15 00:29:12;;;;;;;13.38;6.82;;;10.50;99.90;;;;;;5093390;28;20095;-49
2022/04/15 00:31:37;;;;;;;9.98;6.70;;;10.50;99.90;;;;;;5075460;28;20126;-50
2022/04/15 00:34:03;;;;;;;13.23;7.07;;;10.60;99.90;;;;;;5092958;28;20056;-52
2022/04/15 00:36:29;;;;;;;15.75;7.28;;;10.60;99.90;;;;;;5093108;28;20028;-53
2022/04/15 00:38:55;;;;;;;16.67;8.50;;;10.50;99.90;;;;;;5093379;28;20092;-51
2022/04/15 00:41:21;;;;;;;10.38;7.30;;;10.50;99.90;;;;;;5093168;28;20031;-51
2022/04/15 00:43:47;;;;;;;15.10;7.45;;;10.40;99.90;;;;;;5074895;28;20028;-57
2022/04/15 00:46:12;;;;;;;10.98;7.10;;;10.40;99.90;;;;;;5075375;28;20028;-52
2022/04/15 00:48:38;;;;;;;11.50;7.22;;;10.30;99.90;;;;;;5075034;28;20020;-52
2022/04/15 00:51:05;;;;;;;11.18;6.50;;;10.30;99.90;;;;;;5076086;28;20031;-52
2022/04/15 00:53:33;;;;;;;11.52;6.97;;;10.20;99.90;;;;;;5074885;28;20067;-51
2022/04/15 00:56:01;;;;;;;10.60;7.00;;;10.20;99.90;;;;;;5093214;28;20028;-52
2022/04/15 00:58:28;;;;;;;9.63;6.93;;;10.10;99.90;;;;;;5075055;28;20028;-51
2022/04/15 01:00:56;;;;;;;10.05;6.60;;;10.00;99.90;;;;;;5075260;28;20053;-50
2022/04/15 01:03:22;;;;;;;11.38;7.22;;;10.00;99.90;;;;;;5093152;28;20024;-53
2022/04/15 01:05:52;;;;;;;8.27;6.55;;;10.00;99.90;;;;;;5075224;28;20031;-55
2022/04/15 01:08:22;;;;;;;12.40;7.05;;;10.10;99.90;;;;;;5093195;28;20059;-56
2022/04/15 01:10:50;;;;;;;13.32;7.78;;;10.00;99.90;;;;;;5093332;28;20024;-53
2022/04/15 01:13:17;;;;;;;11.95;7.70;;;10.00;99.90;;;;;;5093224;28;20088;-55
2022/04/15 01:15:44;;;;;;;13.13;8.10;;;9.90;99.90;;;;;;5093151;28;20028;-51
2022/04/15 01:18:09;;;;;;;13.90;7.80;;;9.80;99.90;;;;;;5093258;28;20080;-54
2022/04/15 01:20:35;;;;;;;14.20;8.00;;;9.70;99.90;;;;;;5075694;28;20101;-53
2022/04/15 01:23:11;;;;;;;13.73;8.30;;;9.70;99.90;;;;;;5075026;28;20024;-57
2022/04/15 01:25:37;;;;;;;14.45;7.78;;;9.80;99.90;;;;;;5092755;28;20034;-51
2022/04/15 01:28:04;;;;;;;14.65;7.25;;;9.80;99.90;;;;;;5074494;28;20063;-54
2022/04/15 01:30:30;;;;;;;11.38;7.32;;;9.80;99.90;;;;;;5075457;28;20032;-55
2022/04/15 01:32:55;;;;;;;12.68;7.95;;;9.80;99.90;;;;;;5096723;28;20066;-54
2022/04/15 01:35:21;;;;;;;10.52;7.28;;;9.80;99.90;;;;;;5096948;28;20028;-55
2022/04/15 01:37:48;;;;;;;17.15;9.60;;;9.80;99.90;;;;;;5096734;28;20505;-51
2022/04/15 01:40:16;;;;;;;11.52;7.72;;;9.70;99.90;;;;;;5096694;28;20108;-55
2022/04/15 01:42:43;;;;;;;16.02;8.18;;;9.60;99.90;;;;;;5096828;28;20028;-51
2022/04/15 01:45:10;;;;;;;13.27;7.95;;;9.60;99.90;;;;;;5078302;28;20024;-53
2022/04/15 01:47:36;;;;;;;12.63;8.02;;;9.60;99.90;;;;;;5096568;28;20031;-53
2022/04/15 01:50:03;;;;;;;14.10;7.82;;;9.50;99.90;;;;;;5096637;28;20032;-54
2022/04/15 01:52:29;;;;;;;12.63;8.10;;;9.40;99.90;;;;;;5078467;28;20432;-54
2022/04/15 01:54:54;;;;;;;13.45;8.45;;;9.40;99.90;;;;;;5079155;28;20024;-53
2022/04/15 01:57:20;;;;;;;10.80;7.78;;;9.40;99.90;;;;;;5096348;28;20386;-56
2022/04/15 01:59:46;;;;;;;12.90;7.60;;;9.40;99.90;;;;;;5078217;28;20030;-56
2022/04/15 02:02:11;;;;;;;14.98;7.47;;;9.30;99.90;;;;;;5078867;28;20023;-53
2022/04/15 02:04:37;;;;;;;11.27;6.78;;;9.40;99.90;;;;;;5096037;28;20059;-54
2022/04/15 02:07:04;;;;;;;17.80;8.25;;;9.30;99.90;;;;;;5078084;28;20096;-51
2022/04/15 02:09:30;;;;;;;12.38;7.90;;;9.30;99.90;;;;;;5078062;28;20355;-52
2022/04/15 02:12:26;;;;;;;11.57;7.38;;;9.30;99.90;;;;;;5078185;28;20039;-54
2022/04/15 02:14:51;;;;;;;15.35;8.13;;;9.20;99.90;;;;;;5096249;28;20051;-57
2022/04/15 02:17:17;;;;;;;14.13;8.00;;;9.10;99.90;;;;;;5096222;28;20466;-56
2022/04/15 02:19:43;;;;;;;13.98;7.78;;;9.10;99.90;;;;;;5077704;28;20050;-52
2022/04/15 02:22:08;;;;;;;12.05;7.85;;;9.10;99.90;;;;;;5096075;28;20024;-55
2022/04/15 02:24:34;;;;;;;12.93;7.53;;;9.10;99.90;;;;;;5095703;28;20046;-51
2022/04/15 02:26:59;;;;;;;14.35;8.45;;;9.10;99.90;;;;;;5095930;28;20118;-52
2022/04/15 02:29:26;;;;;;;13.80;8.60;;;9.00;99.90;;;;;;5095906;28;20028;-50
2022/04/15 02:31:52;;;;;;;10.50;7.18;;;8.90;99.90;;;;;;5078350;28;20059;-50
2022/04/15 02:34:17;;;;;;;14.05;8.05;;;8.90;99.90;;;;;;5095583;28;20063;-56
2022/04/15 02:36:43;;;;;;;12.43;7.63;;;8.90;99.90;;;;;;5078297;28;20035;-54
2022/04/15 02:39:11;;;;;;;13.82;8.60;;;8.80;99.90;;;;;;5077727;28;20025;-54
2022/04/15 02:41:38;;;;;;;12.88;8.30;;;8.80;99.90;;;;;;5077426;28;20024;-51
2022/04/15 02:44:07;;;;;;;12.55;7.10;;;8.90;99.90;;;;;;5077447;28;20035;-55
2022/04/15 02:46:33;;;;;;;10.45;7.07;;;8.90;99.90;;;;;;5095291;28;20054;-57
2022/04/15 02:48:59;;;;;;;14.32;7.90;;;8.80;99.90;;;;;;5095402;28;20024;-54
2022/04/15 02:51:25;;;;;;;11.55;7.75;;;8.80;99.90;;;;;;5077447;28;20116;-52
2022/04/15 02:53:51;;;;;;;11.80;7.78;;;8.70;99.90;;;;;;5077853;28;20055;-51
2022/04/15 02:56:17;;;;;;;12.85;7.18;;;8.70;99.90;;;;;;5077205;28;20585;-52
2022/04/15 02:58:42;;;;;;;11.07;7.70;;;8.70;99.90;;;;;;5077805;28;20035;-54
2022/04/15 03:01:08;;;;;;;10.40;6.88;;;8.70;99.90;;;;;;5077009;28;20017;-54
2022/04/15 03:03:34;;;;;;;12.38;8.07;;;8.60;99.90;;;;;;5094988;28;20057;-53
2022/04/15 03:06:02;;;;;;;13.77;7.80;;;8.50;99.90;;;;;;5077610;28;20035;-53
2022/04/15 03:08:31;;;;;;;11.75;7.43;;;8.50;99.90;;;;;;5076821;28;20028;-55
2022/04/15 03:10:57;;;;;;;18.58;10.48;;;8.40;99.90;;;;;;5095410;28;20032;-54
2022/04/15 03:13:23;;;;;;;11.13;7.28;;;8.40;99.90;;;;;;5094670;28;20032;-51
2022/04/15 03:15:49;;;;;;;13.57;8.38;;;8.40;99.90;;;;;;5076499;28;20028;-53
2022/04/15 03:18:15;;;;;;;12.93;7.72;;;8.40;99.90;;;;;;5095263;28;20111;-54
2022/04/15 03:20:42;;;;;;;12.77;7.70;;;8.40;99.90;;;;;;5094826;28;20055;-51
2022/04/15 03:23:08;;;;;;;11.10;7.35;;;8.30;99.90;;;;;;5077078;28;20107;-52
2022/04/15 03:25:34;;;;;;;13.40;8.23;;;8.30;99.90;;;;;;5094985;28;20099;-55
2022/04/15 03:28:00;;;;;;;12.98;7.85;;;8.40;99.90;;;;;;5094948;28;20092;-56
2022/04/15 03:30:26;;;;;;;14.27;8.27;;;8.40;99.90;;;;;;5094975;28;20027;-52
2022/04/15 03:32:52;;;;;;;14.55;8.35;;;8.50;99.90;;;;;;5076691;28;20035;-51
2022/04/15 03:35:23;;;;;;;14.07;8.70;;;8.60;99.90;;;;;;5094310;28;20024;-55
2022/04/15 03:37:49;;;;;;;13.30;8.68;;;8.70;99.90;;;;;;5077074;28;20020;-52
2022/04/15 03:40:16;;;;;;;15.70;8.68;;;8.80;99.90;;;;;;5094818;28;20462;-50
2022/04/15 03:42:43;;;;;;;10.80;7.40;;;8.90;99.90;;;;;;5076104;28;20050;-52
2022/04/15 03:45:11;;;;;;;13.63;7.88;;;9.00;99.90;;;;;;5076767;28;20028;-53
2022/04/15 03:47:37;;;;;;;12.57;7.70;;;9.00;99.90;;;;;;5076169;28;20052;-55
2022/04/15 03:50:03;;;;;;;14.95;8.40;;;9.10;99.90;;;;;;5076395;28;20082;-53
2022/04/15 03:52:28;;;;;;;17.20;9.35;;;9.00;99.90;;;;;;5094314;28;20024;-55
2022/04/15 03:54:54;;;;;;;11.60;7.50;;;9.00;99.90;;;;;;5075401;28;20028;-53
2022/04/15 03:57:19;;;;;;;16.52;8.93;;;8.90;99.90;;;;;;5075962;28;20070;-55
2022/04/15 03:59:45;;;;;;;13.38;7.97;;;8.90;99.90;;;;;;5076583;28;20055;-52
2022/04/15 04:02:10;;;;;;;15.07;8.85;;;8.80;99.90;;;;;;5075852;28;20474;-52
2022/04/15 04:04:36;;;;;;;15.48;7.95;;;8.80;99.90;;;;;;5075534;28;20024;-52
2022/04/15 04:07:02;;;;;;;12.30;7.57;;;8.70;99.90;;;;;;5094328;28;20024;-52
2022/04/15 04:09:27;;;;;;;12.52;7.75;;;8.70;99.90;;;;;;5093919;28;20028;-60
2022/04/15 04:11:53;;;;;;;12.27;7.75;;;8.70;99.90;;;;;;5093644;28;20035;-53
2022/04/15 04:14:20;;;;;;;13.90;8.65;;;8.70;99.90;;;;;;5075245;28;20020;-52
2022/04/15 04:16:45;;;;;;;12.68;7.97;;;8.60;99.90;;;;;;5093452;28;20024;-54
2022/04/15 04:19:11;;;;;;;12.10;7.63;;;8.70;99.90;;;;;;5093489;28;20027;-52
2022/04/15 04:21:37;;;;;;;14.82;7.43;;;8.60;99.90;;;;;;5093686;28;20398;-50
2022/04/15 04:24:39;;;;;;;14.70;7.63;;;8.50;99.90;;;;;;5075738;28;20111;-50
2022/04/15 04:27:05;;;;;;;12.57;6.95;;;8.40;99.90;;;;;;5075216;28;20028;-51
2022/04/15 04:29:31;;;;;;;11.82;7.25;;;8.40;99.90;;;;;;5075472;28;20028;-53
2022/04/15 04:31:56;;;;;;;14.10;8.20;;;8.30;99.90;;;;;;5093579;28;20386;-51
2022/04/15 04:34:22;;;;;;;12.95;7.82;;;8.30;99.90;;;;;;5075892;28;20028;-52
2022/04/15 04:36:47;;;;;;;14.07;8.25;;;8.20;99.90;;;;;;5075664;28;20020;-56
2022/04/15 04:39:13;;;;;;;12.90;7.57;;;8.20;99.90;;;;;;5076530;28;20121;-56
2022/04/15 04:41:39;;;;;;;19.00;9.13;;;8.20;99.90;;;;;;5093831;28;20424;-50
2022/04/15 04:44:05;;;;;;;18.33;9.05;;;8.20;99.90;;;;;;5093509;28;20058;-55
2022/04/15 04:46:32;;;;;;;16.20;8.23;;;8.20;99.90;;;;;;5093636;28;20024;-55
2022/04/15 04:48:57;;;;;;;15.98;8.93;;;8.20;99.90;;;;;;5075556;28;20028;-50
2022/04/15 04:51:23;;;;;;;14.95;9.25;;;8.20;99.90;;;;;;5093474;28;20020;-51
2022/04/15 04:53:49;;;;;;;18.10;8.50;;;8.30;99.90;;;;;;5093550;28;20077;-52
2022/04/15 04:56:15;;;;;;;14.32;8.70;;;8.30;99.90;;;;;;5076432;28;20020;-53
2022/04/15 04:58:41;;;;;;;15.25;8.85;;;8.50;99.90;;;;;;5075537;28;20051;-54
2022/04/15 05:01:07;;;;;;;18.83;9.23;;;8.60;99.90;;;;;;5075380;28;20024;-55
2022/04/15 05:03:32;;;;;;;15.93;8.20;;;8.70;99.90;;;;;;5093232;28;20016;-51
2022/04/15 05:05:58;;;;;;;13.43;8.38;;;8.90;99.90;;;;;;5095000;28;20032;-56
2022/04/15 05:08:23;;;;;;;13.68;8.43;;;9.30;99.90;;;;;;5097524;28;20035;-58
2022/04/15 05:10:49;;;;;;;13.00;7.53;;;9.70;99.90;;;;;;5097877;28;20039;-53
2022/04/15 05:13:15;;;;;;;12.10;7.57;;;10.00;99.90;;;;;;5097572;28;20024;-51
2022/04/15 05:15:41;;;;;;;15.27;7.43;;;10.40;99.90;;;;;;5079393;28;20078;-52
2022/04/15 05:18:06;;;;;;;14.25;7.65;;;10.80;99.90;;;;;;5098252;28;20035;-53
2022/04/15 05:20:32;;;;;;;13.48;7.75;;;11.30;99.90;;;;;;5097737;28;20112;-54
2022/04/15 05:22:58;;;;;;;14.95;7.65;;;11.80;99.90;;;;;;5079593;28;20017;-55
2022/04/15 05:25:24;;;;;;;14.27;8.38;;;12.30;99.90;;;;;;5079180;28;20031;-54
2022/04/15 05:27:49;;;;;;;11.27;7.32;;;12.70;99.90;;;;;;5080254;28;20082;-58
2022/04/15 05:30:15;;;;;;;16.40;8.73;;;13.30;99.90;;;;;;5079461;28;20024;-56
2022/04/15 05:32:41;;;;;;;13.48;8.23;;;13.70;99.90;;;;;;5097187;28;20024;-56
2022/04/15 05:35:07;;;;;;;13.32;9.15;;;14.20;99.90;;;;;;5078995;28;20028;-55
2022/04/15 05:37:33;;;;;;;11.90;6.47;;;14.70;99.90;;;;;;5079134;28;20016;-59
2022/04/15 05:39:58;;;;;;;10.65;7.00;;;15.30;99.90;;;;;;5097459;28;20085;-57
2022/04/15 05:42:28;;;;;;;12.02;7.50;;;15.80;99.90;;;;;;5079686;28;20038;-54
2022/04/15 05:44:53;;;;;;;13.25;7.65;;;15.80;99.90;;;;;;5096953;28;20027;-57
2022/04/15 05:47:19;;;;;;;10.18;7.15;;;16.10;99.90;;;;;;5096830;28;20020;-54
2022/04/15 05:49:45;;;;;;;11.20;7.20;;;16.50;99.90;;;;;;5078919;28;20091;-54
2022/04/15 05:52:11;;;;;;;15.20;7.90;;;16.60;99.90;;;;;;5078673;28;20024;-52
2022/04/15 05:54:36;;;;;;;12.43;7.40;;;17.30;99.90;;;;;;5096892;28;20032;-57
2022/04/15 05:57:02;;;;;;;14.07;8.02;;;17.90;99.90;;;;;;5096752;28;20031;-57
2022/04/15 05:59:28;;;;;;;9.88;6.88;;;18.10;99.90;;;;;;5097043;28;20027;-57
2022/04/15 06:01:53;;;;;;;12.45;8.35;;;18.70;99.90;;;;;;5078491;28;20024;-56
2022/04/15 06:04:19;;;;;;;11.88;7.88;;;19.40;99.90;;;;;;5078245;28;20019;-52
2022/04/15 06:06:46;;;;;;;11.73;7.60;;;20.00;99.90;;;;;;5078677;28;20028;-56
2022/04/15 06:09:12;;;;;;;10.13;8.00;;;20.50;99.90;;;;;;5096905;28;20046;-57
2022/04/15 06:11:39;;;;;;;13.77;8.40;;;20.90;99.90;;;;;;5078671;28;20032;-59
2022/04/15 06:14:06;;;;;;;10.65;7.72;;;21.20;99.90;;;;;;5078172;28;20035;-55
2022/04/15 06:16:32;;;;;;;11.20;8.25;;;21.40;99.90;;;;;;5078236;28;20098;-58
2022/04/15 06:19:01;;;;;;;11.10;8.23;;;21.80;99.90;;;;;;5078522;28;20474;-59
2022/04/15 06:21:26;;;;;;;10.27;7.70;;;21.80;99.90;;;;;;5078535;28;20432;-58
2022/04/15 06:23:53;;;;;;;9.55;7.55;;;21.60;99.90;;;;;;5096372;28;20049;-58
2022/04/15 06:26:19;;;;;;;10.50;8.38;;;22.00;99.90;;;;;;5078239;28;20024;-58
2022/04/15 06:28:45;;;;;;;15.70;8.63;;;22.50;99.90;;;;;;5078323;28;20024;-58
2022/04/15 06:31:10;;;;;;;17.42;8.52;;;22.70;99.90;;;;;;5111970;28;20032;-59
2022/04/15 06:33:37;;;;;;;12.45;7.28;;;23.50;99.90;;;;;;5098636;28;20078;-57
2022/04/15 06:36:03;;;;;;;12.25;8.00;;;23.40;99.90;;;;;;5099269;28;20028;-58
2022/04/15 06:38:29;;;;;;;7.75;6.45;;;23.40;98.60;;;;;;5116706;28;20020;-59
2022/04/15 06:40:54;;;;;;;12.60;8.23;;;23.50;99.90;;;;;;5097993;28;20085;-55
2022/04/15 06:43:21;;;;;;;9.40;6.80;;;23.00;99.20;;;;;;5116195;28;20019;-59
2022/04/15 06:45:47;;;;;;;10.07;7.38;;;23.10;99.80;;;;;;5116184;28;20533;-59
2022/04/15 06:48:12;;;;;;;9.48;7.53;;;24.20;98.40;;;;;;5097880;28;20027;-58
2022/04/15 06:50:38;;;;;;;8.57;6.93;;;24.70;96.50;;;;;;5116347;28;20024;-58
2022/04/15 06:53:04;;;;;;;11.35;7.57;;;25.20;95.90;;;;;;5116014;28;20035;-59
2022/04/15 06:55:30;;;;;;;11.25;7.40;;;25.70;95.30;;;;;;5115763;28;20031;-57
2022/04/15 06:57:55;;;;;;;11.77;6.72;;;26.70;93.00;;;;;;5097792;28;20027;-58
2022/04/15 07:00:22;;;;;;;11.60;7.30;;;27.30;92.20;;;;;;5097966;28;20020;-58
2022/04/15 07:02:49;;;;;;;8.55;6.70;;;27.80;90.50;;;;;;5097844;28;20054;-59
2022/04/15 07:05:15;;;;;;;10.85;7.00;;;28.40;89.50;;;;;;5097641;28;20039;-58
2022/04/15 07:07:42;;;;;;;8.25;6.72;;;28.30;87.00;;;;;;5097517;28;20161;-55
2022/04/15 07:10:10;;;;;;;7.65;6.03;;;28.10;87.20;;;;;;5115797;28;20047;-58
2022/04/15 07:12:36;;;;;;;6.80;6.10;;;28.80;86.20;;;;;;5115679;28;20020;-56
2022/04/15 07:15:11;;;;;;;8.45;6.45;;;29.50;84.80;;;;;;5097617;28;20049;-56
2022/04/15 07:17:36;;;;;;;9.32;6.10;;;29.50;79.80;;;;;;5097432;28;20079;-59
2022/04/15 07:20:52;;;;;;;9.20;6.20;;;29.20;82.50;;;;;;5115616;28;20099;-58
2022/04/15 07:23:18;;;;;;;7.97;6.75;;;29.80;80.20;;;;;;5116065;28;20020;-53
2022/04/15 07:25:44;;;;;;;6.75;5.18;;;29.60;78.40;;;;;;5097089;28;20057;-48
2022/04/15 07:28:09;;;;;;;6.70;4.32;;;30.10;77.50;;;;;;5096375;28;20024;-53
2022/04/15 07:30:37;;;;;;;7.40;5.40;;;30.90;76.90;;;;;;5097185;28;20110;-50
2022/04/15 07:33:02;;;;;;;7.38;5.18;;;31.40;71.20;;;;;;5097944;28;20443;-48
2022/04/15 07:35:28;;;;;;;7.60;5.30;;;31.50;70.00;;;;;;5097006;28;20517;-48
2022/04/15 07:37:54;;;;;;;7.63;5.50;;;31.70;68.20;;;;;;5115525;28;20023;-50
2022/04/15 07:40:19;;;;;;;6.20;4.80;;;31.90;67.90;;;;;;5115226;28;20020;-48
2022/04/15 07:42:45;;;;;;;6.13;4.63;;;32.00;69.40;;;;;;5096874;28;20016;-49
2022/04/15 07:45:11;;;;;;;6.03;4.90;;;32.80;65.90;;;;;;5114903;28;20470;-52
2022/04/15 07:47:37;;;;;;;5.50;4.63;;;33.20;64.50;;;;;;5096811;28;20031;-49
2022/04/15 07:50:02;;;;;;;5.72;4.35;;;33.50;63.30;;;;;;5097010;28;20069;-50
2022/04/15 07:52:29;;;;;;;4.75;4.25;;;33.60;62.90;;;;;;5096645;28;20024;-48
2022/04/15 07:54:55;;;;;;;4.60;4.20;;;33.10;61.50;;;;;;5114918;28;20405;-50
2022/04/15 07:57:26;;;;;;;4.57;3.75;;;33.00;61.40;;;;;;5096747;28;20024;-49
2022/04/15 07:59:51;;;;;;;5.43;3.50;;;33.20;62.20;;;;;;5096527;28;20088;-48
2022/04/15 08:02:17;;;;;;;6.30;4.50;;;33.70;63.20;;;;;;5114848;28;20444;-49
2022/04/15 08:04:43;;;;;;;8.00;3.90;;;32.90;58.60;;;;;;5096518;28;20126;-50
2022/04/15 08:07:09;;;;;;;4.60;3.00;;;32.70;61.00;;;;;;5097321;28;20028;-48
2022/04/15 08:09:34;;;;;;;5.90;3.10;;;33.00;60.70;;;;;;5114922;28;20059;-48
2022/04/15 08:12:00;;;;;;;6.82;3.20;;;33.40;60.20;;;;;;5097043;28;20057;-49
2022/04/15 08:14:25;;;;;;;6.38;3.75;;;33.70;59.20;;;;;;5114708;28;20034;-49
2022/04/15 08:16:51;;;;;;;4.05;3.58;;;34.50;57.30;;;;;;5114587;28;20030;-48
2022/04/15 08:19:18;;;;;;;5.50;4.05;;;34.10;57.10;;;;;;5114632;28;20044;-50
2022/04/15 08:21:43;;;;;;;4.20;3.80;;;33.80;57.60;;;;;;5114313;28;20069;-48
2022/04/15 08:24:09;;;;;;;7.68;3.60;;;32.90;57.50;;;;;;5096005;28;20023;-48
2022/04/15 08:26:35;;;;;;;6.47;3.58;;;32.20;58.40;;;;;;5096120;28;20126;-50
2022/04/15 08:29:00;;;;;;;5.05;3.38;;;32.00;59.80;;;;;;5096266;28;20020;-51
2022/04/15 08:31:26;;;;;;;7.28;3.70;;;32.40;59.20;;;;;;5096032;28;20482;-48
2022/04/15 08:33:51;;;;;;;3.72;2.05;;;32.50;59.10;;;;;;5096171;28;20015;-52
2022/04/15 08:36:17;;;;;;;4.45;3.17;;;32.60;60.20;;;;;;5114161;28;20046;-50
2022/04/15 08:38:42;;;;;;;4.75;3.38;;;30.50;57.70;;;;;;5096253;28;20069;-49
2022/04/15 08:41:12;;;;;;;3.50;2.40;;;27.70;62.30;;;;;;5095827;28;20030;-53
2022/04/15 08:43:39;;;;;;;3.38;2.17;;;26.10;65.60;;;;;;5113998;28;20020;-51
2022/04/15 08:46:06;;;;;;;4.45;2.70;;;25.80;69.30;;;;;;5114027;28;20032;-48
2022/04/15 08:48:32;;;;;;;5.43;2.35;;;26.40;68.70;;;;;;5095745;28;20023;-49
2022/04/15 08:51:02;;;;;;;2.88;2.25;;;25.60;65.80;;;;;;5095860;28;20030;-48
2022/04/15 08:53:28;;;;;;;2.92;1.90;;;24.80;67.80;;;;;;5114652;28;20522;-50
2022/04/15 08:55:53;;;;;;;6.07;2.03;;;24.20;69.40;;;;;;5113682;28;20028;-51
2022/04/15 08:58:19;;;;;;;4.55;2.20;;;24.30;70.10;;;;;;5096222;28;20065;-48
2022/04/15 09:00:45;;;;;;;4.82;3.42;;;25.00;71.50;;;;;;5096019;28;20114;-49
2022/04/15 09:03:10;;;;;;;6.18;3.05;;;26.00;68.70;;;;;;5095591;28;20024;-49
2022/04/15 09:05:36;;;;;;;3.83;2.25;;;26.00;67.90;;;;;;5113677;28;20024;-51
2022/04/15 09:08:06;;;;;;;3.97;2.60;;;26.10;68.30;;;;;;5095572;28;20024;-50
2022/04/15 09:10:35;;;;;;;4.77;2.87;;;26.20;68.40;;;;;;5096171;28;20029;-50
2022/04/15 09:13:02;;;;;;;5.45;3.17;;;26.10;69.20;;;;;;5096279;28;20261;-48
2022/04/15 09:15:27;;;;;;;7.35;2.83;;;25.90;67.80;;;;;;5096437;28;20024;-50
2022/04/15 09:17:54;;;;;;;5.20;2.60;;;25.50;68.90;;;;;;5095412;28;20110;-49
2022/04/15 09:20:21;;;;;;;4.47;2.25;;;26.30;68.20;;;;;;5095536;28;20028;-51
2022/04/15 09:22:54;;;;;;;4.25;2.33;;;26.50;67.70;;;;;;5113893;28;20020;-49
2022/04/15 09:25:26;;;;;;;3.83;2.28;;;26.20;68.70;;;;;;5113889;28;20024;-48
2022/04/15 09:28:06;;;;;;;5.25;2.28;;;26.00;68.00;;;;;;5113713;28;20026;-50
2022/04/15 09:30:38;;;;;;;6.78;3.22;;;25.90;68.00;;;;;;5095369;28;20028;-48
2022/04/15 09:33:04;;;;;;;4.40;2.97;;;25.20;68.90;;;;;;5095615;28;20051;-51
2022/04/15 09:35:30;;;;;;;5.95;3.03;;;25.00;69.50;;;;;;5095350;28;20062;-52
2022/04/15 09:37:59;;;;;;;2.50;2.00;;;25.10;70.10;;;;;;5113633;28;20105;-55
2022/04/15 09:40:26;;;;;;;3.00;2.33;;;25.20;69.00;;;;;;5113490;28;20153;-53
2022/04/15 09:42:56;;;;;;;5.25;2.47;;;25.10;70.90;;;;;;5113463;28;20015;-49
2022/04/15 09:45:30;;;;;;;6.45;3.05;;;25.80;68.40;;;;;;5096253;28;20031;-52
2022/04/15 09:48:03;;;;;;;4.90;2.88;;;25.90;68.40;;;;;;5096118;28;20031;-50
2022/04/15 09:50:41;;;;;;;4.55;2.60;;;27.10;67.90;;;;;;5095618;28;20023;-53
2022/04/15 09:53:16;;;;;;;2.90;1.90;;;28.20;65.00;;;;;;5098601;28;20026;-58
2022/04/15 09:55:44;;;;;;;6.25;2.20;;;28.30;65.20;;;;;;5117229;28;20020;-57
2022/04/15 09:58:12;;;;;;;6.40;1.98;;;28.80;63.70;;;;;;5099798;28;20016;-57
2022/04/15 10:00:39;;;;;;;3.40;1.80;;;28.90;63.00;;;;;;5099128;28;20053;-58
2022/04/15 10:03:11;;;;;;;3.47;1.92;;;28.40;62.50;;;;;;5117225;28;20073;-56
2022/04/15 10:05:38;;;;;;;3.95;1.83;;;27.60;63.10;;;;;;5117251;28;20051;-55
2022/04/15 10:08:05;;;;;;;4.68;2.10;;;27.40;64.50;;;;;;5116894;28;20030;-54
2022/04/15 10:10:31;;;;;;;4.28;2.10;;;27.70;63.70;;;;;;5098872;28;20031;-54
2022/04/15 10:13:04;;;;;;;4.40;1.80;;;27.60;64.40;;;;;;5116771;28;20024;-55
2022/04/15 10:15:32;;;;;;;6.05;4.03;;;28.50;63.60;;;;;;5098392;28;20051;-52
2022/04/15 10:18:05;;;;;;;3.65;2.30;;;28.30;62.90;;;;;;5098488;28;20031;-55
2022/04/15 10:20:31;;;;;;;4.07;2.15;;;28.40;62.20;;;;;;5116783;28;20020;-57
2022/04/15 10:23:05;;;;;;;6.25;2.50;;;28.50;62.50;;;;;;5116699;28;20022;-56
2022/04/15 10:25:32;;;;;;;5.07;1.90;;;28.70;62.00;;;;;;5116449;28;20027;-58
2022/04/15 10:28:16;;;;;;;6.30;1.70;;;28.30;61.70;;;;;;5098186;28;20481;-57
2022/04/15 10:30:51;;;;;;;2.78;2.00;;;28.20;62.90;;;;;;5116590;28;20028;-55
2022/04/15 10:33:33;;;;;;;2.47;1.80;;;28.30;62.30;;;;;;5098166;28;20106;-56
2022/04/15 10:36:11;;;;;;;3.58;1.88;;;27.80;61.50;;;;;;5116444;28;20478;-57
2022/04/15 10:38:37;;;;;;;5.10;1.60;;;27.10;62.40;;;;;;5116359;28;20024;-56
2022/04/15 10:41:15;;;;;;;4.25;1.80;;;26.50;63.80;;;;;;5098253;28;20020;-56
2022/04/15 10:43:56;;;;;;;4.47;2.17;;;26.20;64.70;;;;;;5098225;28;20058;-57
2022/04/15 10:46:29;;;;;;;4.43;2.38;;;26.10;65.00;;;;;;5098574;28;20019;-57
2022/04/15 10:48:58;;;;;;;4.95;2.13;;;26.20;65.70;;;;;;5116185;28;20034;-54
2022/04/15 10:51:29;;;;;;;3.80;2.35;;;26.00;64.60;;;;;;5116444;28;20027;-55
2022/04/15 10:53:55;;;;;;;4.78;1.67;;;26.00;65.50;;;;;;5098030;28;20016;-58
2022/04/15 10:56:23;;;;;;;4.05;2.45;;;25.70;65.00;;;;;;5098641;28;20080;-57
2022/04/15 11:01:59;;;;;;;5.88;2.53;;;25.00;65.80;;;;;;5116298;28;20027;-55
2022/04/15 11:04:25;;;;;;;4.03;2.38;;;25.00;65.90;;;;;;5114696;28;20024;-58
2022/04/15 11:06:53;;;;;;;2.70;1.80;;;24.70;66.10;;;;;;5097826;28;20028;-58
2022/04/15 11:09:24;;;;;;;4.70;2.28;;;24.70;66.90;;;;;;5097740;28;20028;-58
2022/04/15 11:11:53;;;;;;;3.85;2.88;;;24.60;66.80;;;;;;5097789;28;20031;-55
2022/04/15 11:14:33;;;;;;;4.25;2.10;;;24.80;66.60;;;;;;5097357;28;20066;-58
2022/04/15 11:16:59;;;;;;;3.58;2.00;;;24.60;66.30;;;;;;5097596;28;20065;-56
2022/04/15 11:19:29;;;;;;;4.97;2.00;;;24.40;66.00;;;;;;5115691;28;20425;-55
2022/04/15 11:21:55;;;;;;;3.75;2.20;;;24.30;68.10;;;;;;5097636;28;20024;-58
2022/04/15 11:24:30;;;;;;;5.32;2.20;;;24.20;67.60;;;;;;5097570;28;20027;-56
2022/04/15 11:27:05;;;;;;;3.30;2.22;;;23.80;67.20;;;;;;5115571;28;20031;-55
2022/04/15 11:29:33;;;;;;;5.10;2.92;;;23.30;67.90;;;;;;5115735;28;20024;-56
2022/04/15 11:32:09;;;;;;;3.10;2.10;;;23.10;69.10;;;;;;5097207;28;20028;-56
2022/04/15 11:34:35;;;;;;;4.55;1.98;;;23.20;69.60;;;;;;5115346;28;20024;-58
2022/04/15 11:37:03;;;;;;;6.28;2.70;;;23.30;69.80;;;;;;5115343;28;20022;-53
2022/04/15 11:39:28;;;;;;;4.20;1.95;;;23.30;69.40;;;;;;5115067;28;20016;-55
2022/04/15 11:41:59;;;;;;;3.30;1.75;;;23.00;68.50;;;;;;5115184;28;20027;-56
2022/04/15 11:44:32;;;;;;;3.05;2.15;;;23.00;70.00;;;;;;5115697;28;20024;-53
2022/04/15 11:47:18;;;;;;;2.30;1.88;;;22.60;69.20;;;;;;5097870;28;20028;-53
2022/04/15 11:49:45;;;;;;;2.33;1.52;;;22.70;70.30;;;;;;5096794;28;20034;-50
2022/04/15 11:52:23;;;;;;;2.47;1.58;;;22.80;70.70;;;;;;5114999;28;20106;-55
2022/04/15 11:54:49;;;;;;;5.47;1.67;;;22.90;69.30;;;;;;5096650;28;20024;-57
2022/04/15 11:57:14;;;;;;;3.75;1.58;;;22.80;70.80;;;;;;5114897;28;20020;-56
2022/04/15 11:59:43;;;;;;;7.60;1.80;;;22.80;71.80;;;;;;5114802;28;20024;-54
2022/04/15 12:02:10;;;;;;;3.03;1.73;;;22.90;70.10;;;;;;5097345;28;20038;-52
2022/04/15 12:04:36;;;;;;;5.07;1.90;;;22.80;71.10;;;;;;5114650;28;20024;-54
2022/04/15 12:07:12;;;;;;;3.38;1.73;;;22.30;71.20;;;;;;5096378;28;20053;-55
2022/04/15 12:09:39;;;;;;;5.28;1.98;;;22.30;71.10;;;;;;5114940;28;20019;-55
2022/04/15 12:12:06;;;;;;;2.10;1.52;;;22.40;70.70;;;;;;5114624;28;20123;-56
2022/04/15 12:14:36;;;;;;;3.45;2.28;;;22.60;70.80;;;;;;5095859;28;20110;-57
2022/04/15 12:17:02;;;;;;;2.50;1.65;;;22.40;70.90;;;;;;5114455;28;20410;-54
2022/04/15 12:19:28;;;;;;;2.97;1.30;;;22.40;71.40;;;;;;5096178;28;20034;-54
2022/04/15 12:21:54;;;;;;;3.95;1.52;;;22.50;71.10;;;;;;5096279;28;20034;-56
2022/04/15 12:24:23;;;;;;;4.47;1.63;;;22.30;70.80;;;;;;5096855;28;20038;-54
2022/04/15 12:26:51;;;;;;;2.35;1.63;;;22.50;70.80;;;;;;5114363;28;20024;-51
2022/04/15 12:32:22;;;;;;;2.05;1.58;;;22.10;70.80;;;;;;5114893;28;20038;-52
2022/04/15 12:35:10;;;;;;;3.88;1.83;;;21.20;73.70;;;;;;5096775;28;20338;-55
2022/04/15 12:37:43;;;;;;;3.80;1.50;;;21.30;75.00;;;;;;5096864;28;20042;-56
2022/04/15 12:40:09;;;;;;;2.15;1.80;;;21.00;75.50;;;;;;5114411;28;20015;-53
2022/04/15 12:42:37;;;;;;;1.77;1.60;;;20.70;74.30;;;;;;5114107;28;20023;-50
2022/04/15 12:45:24;;;;;;;3.40;1.65;;;20.30;75.10;;;;;;5095786;28;20029;-51
2022/04/15 12:48:04;;;;;;;5.10;2.03;;;20.20;77.70;;;;;;5096744;28;20092;-55
2022/04/15 12:50:35;;;;;;;3.53;2.10;;;19.90;78.90;;;;;;5096076;28;20024;-51
2022/04/15 12:53:12;;;;;;;2.95;1.73;;;19.70;80.30;;;;;;5114217;28;20035;-50
2022/04/15 12:55:38;;;;;;;2.05;1.63;;;19.40;80.90;;;;;;5113759;28;20034;-52
2022/04/15 12:58:24;;;;;;;2.60;1.70;;;18.90;81.30;;;;;;5114074;28;20448;-53